createdAt,value
2022-09-26T00:01:29.827Z,12.70
2022-09-26T00:03:59.452Z,12.70
2022-09-26T00:06:28.578Z,12.70
2022-09-26T00:08:57.228Z,12.70
2022-09-26T00:11:27.006Z,12.70
2022-09-26T00:13:59.316Z,12.70
2022-09-26T00:16:28.043Z,12.70
2022-09-26T00:18:58.823Z,12.70
2022-09-26T00:21:29.352Z,12.60
2022-09-26T00:23:58.638Z,12.60
2022-09-26T00:26:28.178Z,12.60
2022-09-26T00:28:58.182Z,12.60
2022-09-26T00:31:28.170Z,12.70
2022-09-26T00:33:56.713Z,12.60
2022-09-26T00:36:36.883Z,12.50
2022-09-26T00:39:06.330Z,12.60
2022-09-26T00:41:34.370Z,12.60
2022-09-26T00:44:04.433Z,12.60
2022-09-26T00:46:37.412Z,12.70
2022-09-26T00:49:18.703Z,12.70
2022-09-26T00:51:51.365Z,12.70
2022-09-26T00:54:20.814Z,12.60
2022-09-26T00:56:53.562Z,12.50
2022-09-26T00:59:24.677Z,12.50
2022-09-26T01:01:54.271Z,12.50
2022-09-26T01:04:23.491Z,12.60
2022-09-26T01:06:51.522Z,12.60
2022-09-26T01:09:20.845Z,12.50
2022-09-26T01:11:48.855Z,12.50
2022-09-26T01:14:23.158Z,12.50
2022-09-26T01:16:54.373Z,12.50
2022-09-26T01:19:29.681Z,12.50
2022-09-26T01:22:16.812Z,12.40
2022-09-26T01:24:59.984Z,12.50
2022-09-26T01:27:44.923Z,12.50
2022-09-26T01:30:16.616Z,12.50
2022-09-26T01:33:18.099Z,12.60
2022-09-26T01:36:16.736Z,12.50
2022-09-26T01:39:00.265Z,12.60
2022-09-26T01:41:39.835Z,12.60
2022-09-26T01:44:16.714Z,12.60
2022-09-26T01:46:52.297Z,12.60
2022-09-26T01:49:26.617Z,12.70
2022-09-26T01:51:59.622Z,12.70
2022-09-26T01:54:32.717Z,12.70
2022-09-26T01:57:03.797Z,12.80
2022-09-26T01:59:36.274Z,12.70
2022-09-26T02:02:15.856Z,12.70
2022-09-26T02:04:47.130Z,12.70
2022-09-26T02:07:19.491Z,12.80
2022-09-26T02:09:52.607Z,12.70
2022-09-26T02:12:25.566Z,12.70
2022-09-26T02:14:58.039Z,12.70
2022-09-26T02:17:32.938Z,12.70
2022-09-26T02:20:06.333Z,12.70
2022-09-26T02:22:35.768Z,12.70
2022-09-26T02:25:04.985Z,12.60
2022-09-26T02:27:34.635Z,12.70
2022-09-26T02:30:05.010Z,12.70
2022-09-26T02:32:34.434Z,12.60
2022-09-26T02:35:23.823Z,12.70
2022-09-26T02:37:53.952Z,12.70
2022-09-26T02:40:28.875Z,12.70
2022-09-26T02:43:09.014Z,12.70
2022-09-26T02:45:44.894Z,12.70
2022-09-26T02:48:29.325Z,12.70
2022-09-26T02:51:10.030Z,12.70
2022-09-26T02:53:57.972Z,12.70
2022-09-26T02:56:46.684Z,12.70
2022-09-26T02:59:22.618Z,12.70
2022-09-26T03:01:56.474Z,12.70
2022-09-26T03:04:35.355Z,12.80
2022-09-26T03:07:08.718Z,12.70
2022-09-26T03:09:37.559Z,12.70
2022-09-26T03:12:09.944Z,12.70
2022-09-26T03:14:42.659Z,12.70
2022-09-26T03:17:11.521Z,12.70
2022-09-26T03:19:46.724Z,12.70
2022-09-26T03:22:15.917Z,12.70
2022-09-26T03:24:44.718Z,12.70
2022-09-26T03:27:15.086Z,12.70
2022-09-26T03:29:43.623Z,12.60
2022-09-26T03:32:18.482Z,12.60
2022-09-26T03:34:48.617Z,12.60
2022-09-26T03:37:17.584Z,12.70
2022-09-26T03:39:45.738Z,12.70
2022-09-26T03:42:20.595Z,12.70
2022-09-26T03:44:48.661Z,12.70
2022-09-26T03:47:39.663Z,12.80
2022-09-26T03:50:10.240Z,12.80
2022-09-26T03:52:38.243Z,12.80
2022-09-26T03:55:06.874Z,12.70
2022-09-26T03:57:36.213Z,12.70
2022-09-26T04:00:18.054Z,12.70
2022-09-26T04:02:47.440Z,12.70
2022-09-26T04:05:33.352Z,12.70
2022-09-26T04:08:03.022Z,12.80
2022-09-26T04:10:31.810Z,12.80
2022-09-26T04:12:59.917Z,12.80
2022-09-26T04:15:28.602Z,12.80
2022-09-26T04:18:07.283Z,12.80
2022-09-26T04:20:36.881Z,12.90
2022-09-26T04:23:05.391Z,12.80
2022-09-26T04:25:37.970Z,12.80
2022-09-26T04:28:08.241Z,12.80
2022-09-26T04:30:38.210Z,12.80
2022-09-26T04:33:06.388Z,12.80
2022-09-26T04:35:38.333Z,12.70
2022-09-26T04:38:08.799Z,12.70
2022-09-26T04:40:41.996Z,12.70
2022-09-26T04:43:11.314Z,12.80
2022-09-26T04:45:42.112Z,12.80
2022-09-26T04:48:11.133Z,12.80
2022-09-26T04:51:00.779Z,12.70
2022-09-26T04:53:29.463Z,12.70
2022-09-26T04:56:09.360Z,12.70
2022-09-26T04:58:38.832Z,12.70
2022-09-26T05:01:08.637Z,12.70
2022-09-26T05:04:12.903Z,12.70
2022-09-26T05:06:42.284Z,12.70
2022-09-26T05:09:17.321Z,12.70
2022-09-26T05:11:59.715Z,12.70
2022-09-26T05:14:28.007Z,12.60
2022-09-26T05:16:56.003Z,12.60
2022-09-26T05:19:24.053Z,12.60
2022-09-26T05:22:22.333Z,12.60
2022-09-26T05:25:07.806Z,12.60
2022-09-26T05:27:37.628Z,12.60
2022-09-26T05:30:07.238Z,12.60
2022-09-26T05:32:35.306Z,12.60
2022-09-26T05:35:05.214Z,12.70
2022-09-26T05:37:36.857Z,12.60
2022-09-26T05:40:23.045Z,12.70
2022-09-26T05:42:53.898Z,12.70
2022-09-26T05:45:23.382Z,12.70
2022-09-26T05:47:51.424Z,12.70
2022-09-26T05:50:25.055Z,12.70
2022-09-26T05:52:58.294Z,12.70
2022-09-26T05:55:27.452Z,12.70
2022-09-26T05:57:59.514Z,12.80
2022-09-26T06:00:41.316Z,12.80
2022-09-26T06:03:09.814Z,12.80
2022-09-26T06:05:48.326Z,12.80
2022-09-26T06:08:18.951Z,12.90
2022-09-26T06:11:03.179Z,12.90
2022-09-26T06:13:31.562Z,12.90
2022-09-26T06:16:06.146Z,13.00
2022-09-26T06:18:34.647Z,13.00
2022-09-26T06:21:04.166Z,13.00
2022-09-26T06:23:34.489Z,13.00
2022-09-26T06:26:06.722Z,13.10
2022-09-26T06:28:34.840Z,13.10
2022-09-26T06:31:10.223Z,13.10
2022-09-26T06:33:58.688Z,13.20
2022-09-26T06:36:38.124Z,13.20
2022-09-26T06:39:07.914Z,13.20
2022-09-26T06:41:37.672Z,13.30
2022-09-26T06:44:15.294Z,13.30
2022-09-26T06:46:52.436Z,13.30
2022-09-26T06:49:25.531Z,13.30
2022-09-26T06:52:02.847Z,13.30
2022-09-26T06:54:32.362Z,13.40
2022-09-26T06:57:01.199Z,13.40
2022-09-26T06:59:29.466Z,13.40
2022-09-26T07:02:12.041Z,13.40
2022-09-26T07:04:54.890Z,13.40
2022-09-26T07:07:33.275Z,13.50
2022-09-26T07:10:02.719Z,13.50
2022-09-26T07:12:43.976Z,13.50
2022-09-26T07:15:13.774Z,13.50
2022-09-26T07:17:41.907Z,13.60
2022-09-26T07:20:21.548Z,13.50
2022-09-26T07:23:11.905Z,13.60
2022-09-26T07:25:45.793Z,13.70
2022-09-26T07:28:14.916Z,13.70
2022-09-26T07:30:46.577Z,13.70
2022-09-26T07:33:42.936Z,13.70
2022-09-26T07:36:12.553Z,13.80
2022-09-26T07:38:42.727Z,13.80
2022-09-26T07:41:12.710Z,13.80
2022-09-26T07:46:47.897Z,13.80
2022-09-26T07:49:33.399Z,13.80
2022-09-26T07:52:11.198Z,13.80
2022-09-26T07:54:51.329Z,13.80
2022-09-26T07:57:35.505Z,13.90
2022-09-26T08:00:31.472Z,13.90
2022-09-26T08:03:07.508Z,13.90
2022-09-26T08:05:38.791Z,13.90
2022-09-26T08:08:06.910Z,13.90
2022-09-26T08:11:02.765Z,13.90
2022-09-26T08:13:57.665Z,13.90
2022-09-26T08:16:56.219Z,13.90
2022-09-26T08:19:25.687Z,13.90
2022-09-26T08:21:53.843Z,13.80
2022-09-26T08:24:22.165Z,13.90
2022-09-26T08:27:14.088Z,14.00
2022-09-26T08:29:48.417Z,14.00
2022-09-26T08:32:18.079Z,14.00
2022-09-26T08:34:47.127Z,14.00
2022-09-26T08:37:47.487Z,13.90
2022-09-26T08:40:45.989Z,13.90
2022-09-26T08:43:52.591Z,13.90
2022-09-26T08:46:53.186Z,13.90
2022-09-26T08:49:44.118Z,13.80
2022-09-26T08:52:26.336Z,13.80
2022-09-26T08:54:56.599Z,13.80
2022-09-26T08:57:37.736Z,13.70
2022-09-26T09:00:15.404Z,13.60
2022-09-26T09:02:55.480Z,13.60
2022-09-26T09:05:28.000Z,13.60
2022-09-26T09:07:59.531Z,13.60
2022-09-26T09:10:45.233Z,13.60
2022-09-26T09:13:39.288Z,13.60
2022-09-26T09:16:39.732Z,13.50
2022-09-26T09:19:35.401Z,13.50
2022-09-26T09:22:44.657Z,13.50
2022-09-26T09:25:23.747Z,13.60
2022-09-26T09:28:11.343Z,13.60
2022-09-26T09:30:44.538Z,13.60
2022-09-26T09:33:16.900Z,13.60
2022-09-26T09:35:57.548Z,13.60
2022-09-26T09:38:38.003Z,13.60
2022-09-26T09:41:24.126Z,13.60
2022-09-26T09:43:56.307Z,13.60
2022-09-26T09:46:29.138Z,13.50
2022-09-26T09:49:01.257Z,13.50
2022-09-26T09:51:41.587Z,13.50
2022-09-26T09:54:23.972Z,13.50
2022-09-26T09:57:08.958Z,13.50
2022-09-26T09:59:53.845Z,13.50
2022-09-26T10:02:31.016Z,13.50
2022-09-26T10:05:17.107Z,13.50
2022-09-26T10:07:48.434Z,13.50
2022-09-26T10:10:48.102Z,13.50
2022-09-26T10:13:36.940Z,13.50
2022-09-26T10:16:29.365Z,13.50
2022-09-26T10:19:06.505Z,13.50
2022-09-26T10:21:40.513Z,13.50
2022-09-26T10:24:24.991Z,13.50
2022-09-26T10:27:00.358Z,13.50
2022-09-26T10:29:38.369Z,13.60
2022-09-26T10:32:07.710Z,13.70
2022-09-26T10:34:39.070Z,13.70
2022-09-26T10:37:24.017Z,13.70
2022-09-26T10:40:17.497Z,13.80
2022-09-26T10:42:47.427Z,13.80
2022-09-26T10:45:20.056Z,13.80
2022-09-26T10:48:16.278Z,13.80
2022-09-26T10:51:02.991Z,13.80
2022-09-26T10:53:40.290Z,13.80
2022-09-26T10:56:20.606Z,13.80
2022-09-26T10:58:52.091Z,13.90
2022-09-26T11:01:24.818Z,13.80
2022-09-26T11:03:55.876Z,13.80
2022-09-26T11:06:28.365Z,13.80
2022-09-26T11:09:05.391Z,13.90
2022-09-26T11:11:43.877Z,14.00
2022-09-26T11:14:27.850Z,14.00
2022-09-26T11:17:03.295Z,14.00
2022-09-26T11:19:40.102Z,14.00
2022-09-26T11:22:15.572Z,14.00
2022-09-26T11:24:52.513Z,14.00
2022-09-26T11:27:31.972Z,14.10
2022-09-26T11:30:09.356Z,14.10
2022-09-26T11:32:44.837Z,14.10
2022-09-26T11:35:43.395Z,14.10
2022-09-26T11:38:38.874Z,14.20
2022-09-26T11:41:36.274Z,14.20
2022-09-26T11:44:31.246Z,14.30
2022-09-26T11:47:57.383Z,14.40
2022-09-26T11:50:41.165Z,14.50
2022-09-26T11:53:30.940Z,14.60
2022-09-26T11:56:15.782Z,14.60
2022-09-26T11:58:51.628Z,14.70
2022-09-26T12:01:29.558Z,14.80
2022-09-26T12:04:50.814Z,14.80
2022-09-26T12:07:23.313Z,14.80
2022-09-26T12:10:15.470Z,14.90
2022-09-26T12:12:56.584Z,14.90
2022-09-26T12:15:31.454Z,14.80
2022-09-26T12:18:13.733Z,14.80
2022-09-26T12:21:03.590Z,14.80
2022-09-26T12:23:37.678Z,14.80
2022-09-26T12:26:16.028Z,14.80
2022-09-26T12:29:07.973Z,14.70
2022-09-26T12:31:50.637Z,14.80
2022-09-26T12:34:47.083Z,14.70
2022-09-26T12:37:36.320Z,14.70
2022-09-26T12:40:18.710Z,14.70
2022-09-26T12:43:08.543Z,14.70
2022-09-26T12:46:01.757Z,14.70
2022-09-26T12:48:39.233Z,14.70
2022-09-26T12:51:19.959Z,14.60
2022-09-26T12:54:06.153Z,14.70
2022-09-26T12:56:47.324Z,14.70
2022-09-26T12:59:39.755Z,14.60
2022-09-26T13:02:24.565Z,14.60
2022-09-26T13:05:37.910Z,14.60
2022-09-26T13:08:16.576Z,14.50
2022-09-26T13:11:03.361Z,14.40
2022-09-26T13:14:08.930Z,14.40
2022-09-26T13:16:48.425Z,14.40
2022-09-26T13:19:23.990Z,14.30
2022-09-26T13:21:59.359Z,14.30
2022-09-26T13:24:36.232Z,14.20
2022-09-26T13:27:13.253Z,14.20
2022-09-26T13:29:44.602Z,14.20
2022-09-26T13:32:20.415Z,14.20
2022-09-26T13:34:54.269Z,14.10
2022-09-26T13:37:38.276Z,14.10
2022-09-26T13:40:22.126Z,14.10
2022-09-26T13:43:02.829Z,14.10
2022-09-26T13:45:46.141Z,14.10
2022-09-26T13:48:20.804Z,14.10
2022-09-26T13:50:54.712Z,14.20
2022-09-26T13:53:28.872Z,14.20
2022-09-26T13:56:42.276Z,14.20
2022-09-26T13:59:32.739Z,14.20
2022-09-26T14:02:18.073Z,14.20
2022-09-26T14:04:46.500Z,14.20
2022-09-26T14:07:34.262Z,14.10
2022-09-26T14:10:24.381Z,14.10
2022-09-26T14:13:21.757Z,14.10
2022-09-26T14:15:58.522Z,14.10
2022-09-26T14:18:56.908Z,14.10
2022-09-26T14:21:40.545Z,14.10
2022-09-26T14:24:32.491Z,14.10
2022-09-26T14:27:38.280Z,14.10
2022-09-26T14:30:26.748Z,14.10
2022-09-26T14:33:02.101Z,14.10
2022-09-26T14:35:32.566Z,14.10
2022-09-26T14:38:02.903Z,14.00
2022-09-26T14:40:33.672Z,14.00
2022-09-26T14:43:12.388Z,14.00
2022-09-26T14:45:51.101Z,13.90
2022-09-26T14:48:32.177Z,13.90
2022-09-26T14:51:04.605Z,13.90
2022-09-26T14:53:39.137Z,13.90
2022-09-26T14:56:11.296Z,13.80
2022-09-26T14:58:53.003Z,13.80
2022-09-26T15:01:26.754Z,13.80
2022-09-26T15:03:58.482Z,13.70
2022-09-26T15:06:29.469Z,13.80
2022-09-26T15:08:59.714Z,13.80
2022-09-26T15:11:34.677Z,13.70
2022-09-26T15:14:14.088Z,13.70
2022-09-26T15:16:48.303Z,13.70
2022-09-26T15:19:20.662Z,13.70
2022-09-26T15:21:55.680Z,13.60
2022-09-26T15:24:27.422Z,13.60
2022-09-26T15:26:58.407Z,13.50
2022-09-26T15:29:27.447Z,13.60
2022-09-26T15:31:57.560Z,13.60
2022-09-26T15:34:33.400Z,13.50
2022-09-26T15:37:02.365Z,13.60
2022-09-26T15:39:41.865Z,13.60
2022-09-26T15:42:45.780Z,13.60
2022-09-26T15:45:30.147Z,13.60
2022-09-26T15:48:01.923Z,13.60
2022-09-26T15:50:43.702Z,13.60
2022-09-26T15:53:23.265Z,13.60
2022-09-26T15:55:56.463Z,13.60
2022-09-26T15:58:29.012Z,13.60
2022-09-26T16:00:59.194Z,13.60
2022-09-26T16:03:45.797Z,13.50
2022-09-26T16:06:25.022Z,13.50
2022-09-26T16:08:59.299Z,13.50
2022-09-26T16:11:27.970Z,13.50
2022-09-26T16:13:58.079Z,13.50
2022-09-26T16:16:31.855Z,13.50
2022-09-26T16:19:05.031Z,13.40
2022-09-26T16:21:36.477Z,13.40
2022-09-26T16:24:27.715Z,13.40
2022-09-26T16:26:56.651Z,13.40
2022-09-26T16:29:34.057Z,13.40
2022-09-26T16:32:03.391Z,13.40
2022-09-26T16:34:33.232Z,13.40
2022-09-26T16:37:01.449Z,13.40
2022-09-26T16:39:31.023Z,13.40
2022-09-26T16:42:03.482Z,13.30
2022-09-26T16:44:36.762Z,13.30
2022-09-26T16:47:09.156Z,13.30
2022-09-26T16:49:46.836Z,13.20
2022-09-26T16:52:35.416Z,13.20
2022-09-26T16:55:06.944Z,13.20
2022-09-26T16:57:37.964Z,13.20
2022-09-26T17:00:33.031Z,13.20
2022-09-26T17:03:01.233Z,13.20
2022-09-26T17:05:31.008Z,13.10
2022-09-26T17:07:59.165Z,13.20
2022-09-26T17:10:27.663Z,13.20
2022-09-26T17:12:56.301Z,13.20
2022-09-26T17:15:28.923Z,13.20
2022-09-26T17:17:58.287Z,13.20
2022-09-26T17:20:26.927Z,13.20
2022-09-26T17:22:56.620Z,13.20
2022-09-26T17:25:25.943Z,13.20
2022-09-26T17:27:57.957Z,13.20
2022-09-26T17:30:26.267Z,13.20
2022-09-26T17:32:54.695Z,13.10
2022-09-26T17:35:29.438Z,13.10
2022-09-26T17:38:00.055Z,13.10
2022-09-26T17:40:29.833Z,13.10
2022-09-26T17:43:00.683Z,13.10
2022-09-26T17:45:31.167Z,13.00
2022-09-26T17:48:01.971Z,13.00
2022-09-26T17:50:32.314Z,13.00
2022-09-26T17:53:03.551Z,13.00
2022-09-26T17:55:32.238Z,13.00
2022-09-26T17:58:01.138Z,13.10
2022-09-26T18:00:34.332Z,13.10
2022-09-26T18:03:04.295Z,13.10
2022-09-26T18:05:36.020Z,13.10
2022-09-26T18:08:10.422Z,13.10
2022-09-26T18:10:45.095Z,13.10
2022-09-26T18:13:15.607Z,13.00
2022-09-26T18:15:43.884Z,13.10
2022-09-26T18:18:17.772Z,13.10
2022-09-26T18:20:48.726Z,13.10
2022-09-26T18:23:21.706Z,13.10
2022-09-26T18:25:51.417Z,13.10
2022-09-26T18:28:22.247Z,13.10
2022-09-26T18:30:57.872Z,13.10
2022-09-26T18:33:28.831Z,13.00
2022-09-26T18:35:58.208Z,13.00
2022-09-26T18:38:27.930Z,13.00
2022-09-26T18:40:58.490Z,12.90
2022-09-26T18:43:31.629Z,12.90
2022-09-26T18:46:00.165Z,13.00
2022-09-26T18:48:32.710Z,12.90
2022-09-26T18:51:01.544Z,12.90
2022-09-26T18:53:37.110Z,12.90
2022-09-26T18:56:23.182Z,12.80
2022-09-26T18:58:51.328Z,12.80
2022-09-26T19:01:26.982Z,12.80
2022-09-26T19:03:56.408Z,12.80
2022-09-26T19:06:26.473Z,12.80
2022-09-26T19:09:00.261Z,12.80
2022-09-26T19:11:31.864Z,12.80
2022-09-26T19:14:03.641Z,12.80
2022-09-26T19:16:31.756Z,12.80
2022-09-26T19:18:59.825Z,12.90
2022-09-26T19:21:32.547Z,12.80
2022-09-26T19:24:06.039Z,12.80
2022-09-26T19:26:41.534Z,12.80
2022-09-26T19:29:16.227Z,12.90
2022-09-26T19:31:44.883Z,12.90
2022-09-26T19:34:15.803Z,12.90
2022-09-26T19:36:46.580Z,12.90
2022-09-26T19:39:17.420Z,12.90
2022-09-26T19:41:45.518Z,12.90
2022-09-26T19:44:13.854Z,12.90
2022-09-26T19:46:43.610Z,13.00
2022-09-26T19:49:17.139Z,12.90
2022-09-26T19:51:45.536Z,12.90
2022-09-26T19:54:19.294Z,12.90
2022-09-26T19:56:47.723Z,13.00
2022-09-26T19:59:17.192Z,13.00
2022-09-26T20:01:47.472Z,13.00
2022-09-26T20:04:18.574Z,13.00
2022-09-26T20:06:47.799Z,12.90
2022-09-26T20:09:20.278Z,12.90
2022-09-26T20:11:48.495Z,13.00
2022-09-26T20:14:26.001Z,13.00
2022-09-26T20:16:59.388Z,13.00
2022-09-26T20:19:32.157Z,13.10
2022-09-26T20:22:03.266Z,13.00
2022-09-26T20:24:34.477Z,13.10
2022-09-26T20:27:05.147Z,13.10
2022-09-26T20:29:54.013Z,13.10
2022-09-26T20:32:22.209Z,13.10
2022-09-26T20:34:50.357Z,13.10
2022-09-26T20:37:19.785Z,13.10
2022-09-26T20:39:49.396Z,13.10
2022-09-26T20:42:19.977Z,13.10
2022-09-26T20:44:50.965Z,13.00
2022-09-26T20:47:21.407Z,13.10
2022-09-26T20:49:53.719Z,13.10
2022-09-26T20:52:23.945Z,13.00
2022-09-26T20:54:53.986Z,13.10
2022-09-26T20:57:23.075Z,13.00
2022-09-26T20:59:52.031Z,12.90
2022-09-26T21:02:28.759Z,13.00
2022-09-26T21:04:58.123Z,13.00
2022-09-26T21:07:26.785Z,12.90
2022-09-26T21:09:56.275Z,12.90
2022-09-26T21:12:24.394Z,12.90
2022-09-26T21:14:52.527Z,12.90
2022-09-26T21:17:23.680Z,12.90
2022-09-26T21:19:52.270Z,13.00
2022-09-26T21:22:52.938Z,13.00
2022-09-26T21:25:24.881Z,13.00
2022-09-26T21:27:58.919Z,13.00
2022-09-26T21:30:27.231Z,12.90
2022-09-26T21:32:58.094Z,12.90
2022-09-26T21:35:30.030Z,12.90
2022-09-26T21:37:59.796Z,12.90
2022-09-26T21:40:32.800Z,12.90
2022-09-26T21:43:05.168Z,12.90
2022-09-26T21:45:33.701Z,12.90
2022-09-26T21:48:01.968Z,12.90
2022-09-26T21:50:30.500Z,12.90
2022-09-26T21:53:02.448Z,12.90
2022-09-26T21:55:35.803Z,12.90
2022-09-26T21:58:09.125Z,12.90
2022-09-26T22:00:37.325Z,12.90
2022-09-26T22:03:06.648Z,12.90
2022-09-26T22:05:34.866Z,12.90
2022-09-26T22:08:03.260Z,12.80
2022-09-26T22:10:32.759Z,12.80
2022-09-26T22:13:00.833Z,12.70
2022-09-26T22:15:28.998Z,12.70
2022-09-26T22:17:57.395Z,12.70
2022-09-26T22:20:25.733Z,12.70
2022-09-26T22:22:53.900Z,12.70
2022-09-26T22:25:21.978Z,12.60
2022-09-26T22:27:51.460Z,12.60
2022-09-26T22:30:19.684Z,12.50
2022-09-26T22:32:47.851Z,12.50
2022-09-26T22:35:16.128Z,12.50
2022-09-26T22:37:44.220Z,12.50
2022-09-26T22:40:12.348Z,12.40
2022-09-26T22:42:40.513Z,12.40
2022-09-26T22:45:11.326Z,12.40
2022-09-26T22:47:39.473Z,12.40
2022-09-26T22:50:08.063Z,12.50
2022-09-26T22:52:36.137Z,12.60
2022-09-26T22:55:04.548Z,12.50
2022-09-26T22:57:32.672Z,12.50
2022-09-26T23:00:01.865Z,12.50
2022-09-26T23:02:31.488Z,12.50
2022-09-26T23:04:59.683Z,12.40
2022-09-26T23:07:27.878Z,12.40
2022-09-26T23:09:55.996Z,12.30
2022-09-26T23:12:24.186Z,12.30
2022-09-26T23:14:52.624Z,12.20
2022-09-26T23:17:20.754Z,12.20
2022-09-26T23:19:50.234Z,12.20
2022-09-26T23:22:18.303Z,12.30
2022-09-26T23:24:46.409Z,12.30
2022-09-26T23:27:14.487Z,12.30
2022-09-26T23:29:42.661Z,12.30
2022-09-26T23:32:10.754Z,12.30
2022-09-26T23:34:38.886Z,12.20
2022-09-26T23:37:08.379Z,12.20
2022-09-26T23:39:36.471Z,12.20
2022-09-26T23:42:04.641Z,12.10
2022-09-26T23:44:34.807Z,12.00
2022-09-26T23:47:04.235Z,12.00
2022-09-26T23:49:32.414Z,12.00
2022-09-26T23:52:00.481Z,12.10
2022-09-26T23:54:29.944Z,12.00
2022-09-26T23:56:58.030Z,12.00
2022-09-26T23:59:26.254Z,12.00
